METAR Data
IDs: Format: Raw Decoded Include TAF

Data at: 0839 UTC 23 Sep 2018

KCMX 230753Z AUTO 07007KT 10SM OVC006 06/04 A3019 RMK AO2 SLP227 T00610039
KCMX 230653Z AUTO 06006KT 10SM OVC006 07/04 A3018 RMK AO2 RAB37E48 SLP225 P0000 T00670044
KCMX 230615Z AUTO 05007KT 10SM OVC005 07/05 A3017 RMK AO2 T00720050
KCMX 230553Z AUTO 06009KT 10SM OVC004 07/06 A3015 RMK AO2 SLP216 T00720056 10122 20072 51009
KCMX 230535Z AUTO 07009KT 10SM OVC004 08/06 A3014 RMK AO2 T00780056
KCMX 230502Z AUTO 06007KT 10SM OVC005 08/06 A3015 RMK AO2 T00780061
KCMX 230453Z AUTO 05005KT 10SM BKN004 OVC090 08/06 A3015 RMK AO2 SLP215 T00830061 401560044
KCMX 230438Z AUTO 04008KT 10SM BKN003 OVC090 08/06 A3014 RMK AO2 T00830061
KCMX 230420Z AUTO 03008KT 10SM SCT003 BKN090 08/07 A3014 RMK AO2 T00830067
KCMX 230353Z AUTO 02006KT 10SM CLR 08/06 A3014 RMK AO2 SLP211 T00830061
KCMX 230253Z AUTO 00000KT 10SM FEW120 08/06 A3013 RMK AO2 SLP208 T00830061 53005
KCMX 230153Z AUTO 00000KT 10SM OVC095 11/06 A3013 RMK AO2 SLP207 T01060061
KCMX 230053Z AUTO 36003KT 10SM BKN090 OVC110 11/07 A3011 RMK AO2 SLP200 T01060072
KCMX 222353Z AUTO 31005KT 10SM OVC085 11/06 A3011 RMK AO2 SLP203 T01110061 10156 20111 57002
KCMX 222253Z AUTO 33006KT 10SM OVC085 12/06 A3012 RMK AO2 SLP203 T01170056
KCMX 222153Z AUTO 33003KT 10SM BKN080 OVC095 14/08 A3012 RMK AO2 SLP203 T01390078
KCMX 222053Z AUTO 22004KT 10SM OVC095 14/05 A3012 RMK AO2 SLP205 T01440050 56024
KCMX 221953Z AUTO 23005KT 10SM OVC110 14/05 A3014 RMK AO2 SLP212 T01440050
KCMX 221853Z AUTO 24010G18KT 10SM OVC110 14/04 A3017 RMK AO2 SLP220 T01440039
KCMX 221753Z AUTO 25011KT 10SM CLR 15/04 A3019 RMK AO2 SLP228 T01500039 10156 20067 58017
KCMX 221653Z AUTO 27016G24KT 10SM CLR 14/04 A3021 RMK AO2 SLP236 T01440039
KCMX 221553Z AUTO 26014G21KT 10SM CLR 13/04 A3023 RMK AO2 SLP242 T01330044
KCMX 221453Z AUTO 21006KT 10SM CLR 12/08 A3024 RMK AO2 SLP247 T01170078 58001
KCMX 221353Z AUTO 24004KT 10SM CLR 11/08 A3024 RMK AO2 SLP248 T01060078
KCMX 221253Z AUTO VRB03KT 10SM CLR 08/07 A3025 RMK AO2 SLP252 T00830067
KCMX 221153Z AUTO 21003KT 10SM CLR 07/05 A3025 RMK AO2 SLP249 70014 T00670050 10072 20044 53006
KCMX 221053Z AUTO 23003KT 10SM CLR 07/06 A3024 RMK AO2 SLP246 T00720056
KCMX 220953Z AUTO 27003KT 10SM CLR 06/04 A3023 RMK AO2 SLP245 T00560044
KCMX 220853Z AUTO 27005KT 10SM CLR 06/04 A3023 RMK AO2 SLP244 T00560039 55002
KCMX 220753Z AUTO 30005KT 10SM CLR 05/03 A3023 RMK AO2 SLP244 T00500033
KCMX 220653Z AUTO 28005KT 10SM CLR 06/04 A3023 RMK AO2 SLP245 T00610044
KCMX 220553Z AUTO 28005KT 10SM CLR 07/04 A3023 RMK AO2 SLP245 60000 T00670044 10094 20067 50010
KCMX 220453Z AUTO 26003KT 10SM FEW060 07/05 A3024 RMK AO2 SLP246 T00720050 401890067
KCMX 220353Z AUTO 26003KT 10SM SCT045 BKN060 08/06 A3022 RMK AO2 SLP241 T00780056
KCMX 220253Z AUTO 29007KT 10SM FEW035 SCT055 08/06 A3020 RMK AO2 RAE09 SLP233 P0000 60000 T00830056 51028
KCMX 220153Z AUTO 29007KT 10SM -RA SCT035 SCT045 OVC065 08/06 A3018 RMK AO2 RAB36 SLP226 P0000 T00830056
KCMX 220053Z AUTO 24006KT 10SM FEW036 08/04 A3015 RMK AO2 SLP214 T00830044
KCMX 212353Z AUTO 28008KT 10SM FEW032 09/04 A3012 RMK AO2 SLP202 60000 T00940039 10106 20094 51041
KCMX 212253Z AUTO 32012KT 10SM SCT030 BKN035 10/04 A3009 RMK AO2 PK WND 30031/2203 SLP190 T01000039
KCMX 212153Z AUTO 32013G30KT 10SM FEW028 BKN037 OVC049 10/03 A3005 RMK AO2 PK WND 32031/2112 RAB2055E06 SLP177 P0000 T01000033
KCMX 212053Z AUTO 33023G32KT 10SM FEW025 BKN034 OVC046 10/03 A2999 RMK AO2 PK WND 33036/2005 SLP159 T01000033 51075